Terminal Aerodrome Forecast
Issued by NWS

Home | Current Version | Previous Version | Graphics & Text | Print | Product List | Glossary On
Versions: 1 2 3 4 5 6 7 8 9 10 11 12 13 14 15 16 17 18 19 20 21 22 23 24 25 26
000
FTUS45 KGGW 190527
TAFOLF
TAF
KOLF 190527Z 1906/2006 07005KT P6SM FEW024
     FM190700 07005KT 5SM BR FEW013
     FM191000 VRB04KT 1SM BR BKN004
     FM191600 09008KT P6SM SCT070=

USA.gov is the U.S. government's official web portal to all federal, state and local government web resources and services.